Ludlow, VT (05149)

12:01 AM EDT on September 20, 2014 (GMT -0400)
Lake Rescue | Change Station
CLOSE
Current Station
Personal Weather Station
Location: Ludlow, VT
Elevation: 1056 ft
Nearby Weather Stations

Elev 1056 ft 43.45 °N, 72.70 °W | Updated 104 days ago

Clear
Clear
41 °F
Feels Like 41 °F
N
14
Wind Variable Wind from South
Gusts 21 mph

Today
High -- | Low -- °F
--% Chance of Precip.
Yesterday
High -- | Low -- °F
Precip. -- in
6:35 AM 6:51 PM
Waning Crescent, 15% visible
Pressure 30.38 in
Visibility 9.0 miles
Clouds Clear
Dew Point 39 °F
Humidity 92%
Rainfall 0.00 in
Snow Depth Not available.
UV 0 out of 12
Pollen 2.00 out of 12
Ozone Good
PM2.5 Good
Flu Activity Not available.
METAR KVSF 200354Z AUTO 00000KT 9SM CLR 02/02 A3036 RMK AO2 SLP287 T00220017

More Conditions Fewer Conditions

Pressure 30.38 in
Visibility 9.0 miles
Clouds Clear
Dew Point 39 °F
Humidity 92%
Rainfall 0.00 in
Snow Depth Not available.
UV 0 out of 12
Pollen 2.00 out of 12
Ozone Good
PM2.5 Good
Flu Activity Not available.
METAR KVSF 200354Z AUTO 00000KT 9SM CLR 02/02 A3036 RMK AO2 SLP287 T00220017

More Conditions Fewer Conditions

10-Day Weather Forecast

Almanac

Astronomy

Sep. 20, 2014 Rise Set
Actual Time 6:35 AM EDT 6:51 PM EDT
Civil Twilight 6:07 AM EDT 7:20 PM EDT
Nautical Twilight 5:33 AM EDT 7:53 PM EDT
Astronomical Twilight 4:59 AM EDT 8:28 PM EDT
Moon 3:07 AM EDT 4:57 PM EDT
Length of Visible Light 13h 13m
Length of Day
12h 16m
Tomorrow will be 2m 57s shorter.
Waning Crescent, 15% of the Moon is Illuminated
Today
Waning Crescent
Sep 24
New
Oct 1
First Quarter
Oct 8
Full
Oct 15
Last Quarter

Yesterday's Extremes

State Highs State Lows

Community

WunderPhotos

Upload Photos

1,754,777 photos uploaded!

WunderBlogs® & News

Nearby

Air Quality

  Air Quality AQ Index Pollutant
Yesterday Good
OZONE
Yesterday Good
PM2.5
Current Good
OZONE
Current Good
PM2.5
Friday Good
PM2.5
Friday Good
OZONE
Saturday Good
OZONE
Saturday Good
PM2.5
Sunday Good
PM2.5
Monday Good
PM2.5

Snow Depth

Station Depth Elevation
No new snow has been reported.

Earthquake Activity

City Distance Mag. Time & Date
No recent earthquake activity has been reported nearby.
Minimum magnitude displayed is 2.5.

Coastal Water Temperatures

Place Temperature
No Stations Reporting

Nearby Weather Stations